Time;durP1;ratioP1;P1;durP2;ratioP2;P2;SDS_P1;SDS_P2;PMS_P1;PMS_P2;Temp;Humidity;BMP_temperature;BMP_pressure;BME280_temperature;BME280_humidity;BME280_pressure;Samples;Min_cycle;Max_cycle;Signal;HPM_P1;HPM_P2
2021/06/22 00:01:52;;;;;;;19.10;12.05;;;;;;;25.79;60.72;99788.34;5077279;56;1140763;-83
2021/06/22 00:06:58;;;;;;;19.25;13.95;;;;;;;25.69;60.73;99786.20;5077450;55;1140636;-81
2021/06/22 00:12:04;;;;;;;20.57;13.95;;;;;;;25.64;60.99;99801.00;5077258;56;1140803;-83
2021/06/22 00:17:10;;;;;;;17.55;14.60;;;;;;;25.56;61.20;99801.30;5077508;56;1140797;-84
2021/06/22 00:22:16;;;;;;;23.52;15.20;;;;;;;25.55;61.32;99810.48;5077153;56;1140859;-81
2021/06/22 00:27:22;;;;;;;16.27;13.20;;;;;;;25.64;61.74;99811.83;5077294;56;1140843;-79
2021/06/22 00:32:28;;;;;;;19.42;14.95;;;;;;;25.65;61.39;99814.84;5077307;55;1140884;-90
2021/06/22 00:37:33;;;;;;;17.67;15.40;;;;;;;25.69;61.69;99805.69;5077385;56;1140977;-81
2021/06/22 00:42:42;;;;;;;25.97;14.23;;;;;;;25.83;61.79;99806.58;5083602;55;1140846;-90
2021/06/22 00:47:48;;;;;;;16.97;12.85;;;;;;;26.00;61.66;99804.51;5086563;56;1140697;-84
2021/06/22 00:52:55;;;;;;;20.68;13.75;;;;;;;26.07;61.11;99801.98;5064228;56;1140894;-85
2021/06/22 00:58:06;;;;;;;22.37;13.38;;;;;;;25.88;60.54;99793.69;5063964;56;1140803;-80
2021/06/22 01:03:12;;;;;;;16.07;13.28;;;;;;;25.52;60.72;99806.34;5063660;56;1140823;-77
2021/06/22 01:08:20;;;;;;;15.80;13.83;;;;;;;25.25;61.36;99807.84;5063773;56;1140828;-84
2021/06/22 01:13:29;;;;;;;27.05;15.88;;;;;;;25.08;61.90;99802.25;5064034;56;1140879;-88
2021/06/22 01:18:34;;;;;;;19.82;15.23;;;;;;;25.11;62.73;99797.74;5064013;56;1140784;-80
2021/06/22 01:23:42;;;;;;;20.30;16.87;;;;;;;25.13;62.56;99798.34;5056097;56;1140969;-79
2021/06/22 01:28:48;;;;;;;25.90;17.23;;;;;;;25.09;62.86;99797.67;5063912;56;1141036;-84
2021/06/22 01:33:54;;;;;;;22.80;18.55;;;;;;;25.12;63.09;99786.39;5063711;56;1140916;-84
2021/06/22 01:39:04;;;;;;;24.55;16.25;;;;;;;25.13;63.09;99790.22;5063747;56;1140912;-85
2021/06/22 01:44:12;;;;;;;22.80;18.32;;;;;;;25.03;63.04;99801.31;5063622;56;1140740;-78
2021/06/22 01:49:18;;;;;;;26.80;17.15;;;;;;;25.02;63.18;99803.20;5075804;56;1261888;-79
2021/06/22 01:54:24;;;;;;;22.82;14.83;;;;;;;25.17;63.59;99805.48;5063733;56;1140720;-80
2021/06/22 01:59:32;;;;;;;28.73;18.23;;;;;;;25.12;63.17;99837.80;5064009;56;1140847;-76
2021/06/22 02:04:52;;;;;;;21.77;17.57;;;;;;;24.78;63.05;99821.17;5047706;56;1140717;-76
2021/06/22 02:09:59;;;;;;;23.98;18.50;;;;;;;24.84;63.92;99831.61;5063654;56;1140676;-87
2021/06/22 02:15:09;;;;;;;23.20;18.95;;;;;;;24.70;63.18;99828.26;5058848;56;1140911;-82
2021/06/22 02:20:16;;;;;;;27.40;19.98;;;;;;;24.46;63.28;99827.81;5063606;56;1140861;-81
2021/06/22 02:25:23;;;;;;;31.37;24.15;;;;;;;24.36;63.76;99827.00;5063713;55;1140858;-81
2021/06/22 02:30:28;;;;;;;27.50;22.95;;;;;;;24.45;64.42;99827.51;5063660;56;1141087;-85
2021/06/22 02:35:36;;;;;;;28.55;21.60;;;;;;;24.64;64.86;99829.68;5063487;56;1140825;-82
2021/06/22 02:40:44;;;;;;;30.68;20.15;;;;;;;24.66;64.08;99831.11;5063446;56;1140686;-83
2021/06/22 02:45:51;;;;;;;22.67;20.27;;;;;;;24.68;63.97;99847.11;5063883;56;1140656;-78
2021/06/22 02:50:59;;;;;;;37.70;20.43;;;;;;;24.43;63.88;99857.50;5064417;56;1140692;-82
2021/06/22 02:56:07;;;;;;;23.15;19.90;;;;;;;24.26;64.32;99866.42;5064273;56;1140637;-81
2021/06/22 03:01:14;;;;;;;20.57;18.48;;;;;;;24.06;64.70;99875.51;5063413;56;1140830;-81
2021/06/22 03:06:21;;;;;;;26.20;18.32;;;;;;;23.89;65.28;99901.95;5065279;56;1141025;-80
2021/06/22 03:11:41;;;;;;;27.45;21.10;;;;;;;23.79;65.71;99922.19;5064447;56;1140857;-81
2021/06/22 03:16:49;;;;;;;22.90;20.48;;;;;;;23.65;66.24;99925.20;5064369;56;1140673;-89
2021/06/22 03:21:55;;;;;;;25.60;21.45;;;;;;;23.66;66.96;99918.75;5064353;56;1140598;-80
2021/06/22 03:27:02;;;;;;;26.97;20.70;;;;;;;23.73;67.35;99912.77;5050722;56;1140948;-78
2021/06/22 03:32:10;;;;;;;31.50;22.02;;;;;;;23.87;67.59;99924.29;5064561;56;1140715;-86
2021/06/22 03:37:16;;;;;;;26.87;21.50;;;;;;;23.88;67.85;99920.55;5103721;55;1140874;-81
2021/06/22 03:42:22;;;;;;;21.45;19.27;;;;;;;23.88;68.08;99913.80;5195306;55;1140926;-81
2021/06/22 03:47:30;;;;;;;29.98;21.23;;;;;;;24.03;68.41;99916.99;5165484;55;1141011;-78
2021/06/22 03:52:37;;;;;;;25.25;20.70;;;;;;;24.08;68.25;99920.70;5228976;55;1140674;-79
2021/06/22 03:57:45;;;;;;;23.32;20.43;;;;;;;24.04;68.32;99921.34;5193958;55;1140782;-79
2021/06/22 04:02:54;;;;;;;27.93;22.22;;;;;;;23.98;68.52;99921.73;5168209;55;1140730;-79
2021/06/22 04:08:01;;;;;;;24.07;21.55;;;;;;;23.91;68.56;99924.99;5191969;56;1140741;-82
2021/06/22 04:13:09;;;;;;;28.27;21.73;;;;;;;23.89;68.84;99916.80;5144365;56;1140714;-82
2021/06/22 04:18:16;;;;;;;21.87;19.35;;;;;;;23.86;69.08;99927.52;5141769;56;1140911;-79
2021/06/22 04:23:22;;;;;;;23.77;20.00;;;;;;;23.81;69.59;99941.70;5141580;56;1140807;-82
2021/06/22 04:28:30;;;;;;;24.82;20.00;;;;;;;23.76;69.71;99938.81;5141469;56;1140914;-83
2021/06/22 04:33:36;;;;;;;24.32;20.48;;;;;;;23.84;70.03;99937.19;5141647;56;1140782;-85
2021/06/22 04:38:43;;;;;;;25.32;20.05;;;;;;;23.85;69.51;99935.31;5141700;56;1140810;-80
2021/06/22 04:43:49;;;;;;;29.35;19.27;;;;;;;23.96;69.45;99921.12;5141592;56;1140766;-84
2021/06/22 04:48:55;;;;;;;22.40;18.37;;;;;;;24.08;69.11;99917.99;5141412;56;1140726;-83
2021/06/22 04:54:00;;;;;;;25.85;17.55;;;;;;;24.12;68.46;99917.03;5138915;56;1140752;-82
2021/06/22 04:59:07;;;;;;;22.90;18.10;;;;;;;24.17;68.20;99918.00;5138819;56;1140685;-83
2021/06/22 05:04:13;;;;;;;26.50;16.45;;;;;;;24.25;67.85;99916.11;5139007;56;1140890;-84
2021/06/22 05:09:19;;;;;;;20.97;13.70;;;;;;;24.27;67.23;99916.72;5107367;56;1141041;-83
2021/06/22 05:14:25;;;;;;;18.25;15.63;;;;;;;24.34;66.87;99914.23;5138958;56;1140895;-82
2021/06/22 05:19:31;;;;;;;22.20;16.12;;;;;;;24.34;66.50;99908.83;5139105;56;1140837;-86
2021/06/22 05:24:37;;;;;;;18.07;15.50;;;;;;;24.37;66.47;99916.50;5138980;56;1140675;-80
2021/06/22 05:29:45;;;;;;;20.20;16.65;;;;;;;24.47;66.75;99923.56;5138731;56;1140963;-80
2021/06/22 05:34:52;;;;;;;21.42;15.93;;;;;;;24.58;66.43;99924.72;5138968;56;1140803;-84
2021/06/22 05:39:57;;;;;;;23.83;15.95;;;;;;;24.60;66.38;99928.52;5138839;56;1140774;-82
2021/06/22 05:45:07;;;;;;;20.37;13.22;;;;;;;24.59;66.67;99930.42;5148990;55;1140906;-82
2021/06/22 05:50:13;;;;;;;22.35;15.25;;;;;;;24.75;66.80;99938.47;5226292;55;1140775;-81
2021/06/22 05:55:24;;;;;;;21.62;15.48;;;;;;;24.80;66.25;99946.72;5226323;55;1140684;-83
2021/06/22 06:00:29;;;;;;;30.35;18.23;;;;;;;24.84;66.17;99955.52;5225755;55;1140800;-82
2021/06/22 06:05:35;;;;;;;17.27;15.03;;;;;;;24.95;66.38;99970.19;5226397;55;1140774;-82
2021/06/22 06:10:41;;;;;;;13.98;12.55;;;;;;;25.07;66.35;99957.55;5226369;55;1140826;-81
2021/06/22 06:15:47;;;;;;;17.95;11.83;;;;;;;25.20;65.60;99953.35;5226600;55;1140746;-80
2021/06/22 06:20:53;;;;;;;18.45;11.00;;;;;;;25.33;65.02;99955.58;5226868;55;1140711;-84
2021/06/22 06:26:00;;;;;;;11.78;10.08;;;;;;;25.41;64.88;99950.66;5227039;55;1140895;-80
2021/06/22 06:31:06;;;;;;;24.90;13.38;;;;;;;25.64;64.64;99953.20;5226768;55;1140669;-80
2021/06/22 06:36:12;;;;;;;17.92;10.85;;;;;;;25.75;64.07;99953.75;5226915;55;1140801;-83
2021/06/22 06:41:18;;;;;;;17.85;10.35;;;;;;;25.83;63.82;99963.71;5226916;55;1140885;-80
2021/06/22 06:46:24;;;;;;;13.30;10.68;;;;;;;25.91;63.67;99962.56;5194848;55;1140800;-82
2021/06/22 06:51:30;;;;;;;11.35;10.13;;;;;;;25.99;62.94;99955.97;5139746;56;1140958;-82
2021/06/22 06:56:36;;;;;;;18.77;10.20;;;;;;;26.04;62.79;99956.11;5139649;56;1140828;-83
2021/06/22 07:01:42;;;;;;;16.07;10.68;;;;;;;26.19;63.20;99949.70;5139782;56;1140733;-84
2021/06/22 07:06:48;;;;;;;12.18;10.03;;;;;;;26.36;62.71;99952.04;5139601;55;1140827;-79
2021/06/22 07:11:56;;;;;;;11.53;9.48;;;;;;;26.58;62.86;99957.70;5139631;56;1140794;-82
2021/06/22 07:17:03;;;;;;;13.32;10.80;;;;;;;26.78;60.95;99962.20;5139758;56;1138626;-80
2021/06/22 07:22:09;;;;;;;28.98;12.37;;;;;;;26.84;60.69;99982.97;5139628;56;1140655;-81
2021/06/22 07:27:15;;;;;;;13.72;11.38;;;;;;;26.94;60.79;99986.45;5139569;56;1140714;-80
2021/06/22 07:32:21;;;;;;;15.98;10.78;;;;;;;27.04;60.52;99986.66;5139380;56;1140872;-83
2021/06/22 07:37:27;;;;;;;12.70;9.38;;;;;;;27.19;59.86;99992.97;5139738;56;1140708;-81
2021/06/22 07:42:32;;;;;;;20.80;12.10;;;;;;;27.17;59.27;99991.85;5140069;56;1138790;-82
2021/06/22 07:47:38;;;;;;;14.53;12.07;;;;;;;27.14;59.64;99992.33;5154366;55;1140955;-90
2021/06/22 07:52:44;;;;;;;17.95;12.90;;;;;;;27.22;59.92;100007.40;5163159;55;1141104;-80
2021/06/22 07:57:52;;;;;;;17.10;12.78;;;;;;;27.34;59.55;100014.18;5190377;55;1142787;-85
2021/06/22 08:24:53;;;;;;;18.92;11.97;;;;;;;27.80;58.38;100032.23;5266467;56;21144;-82
2021/06/22 08:29:59;;;;;;;13.28;9.00;;;;;;;28.03;57.90;100033.45;5141239;57;21258;-79
2021/06/22 08:35:05;;;;;;;12.68;10.93;;;;;;;28.21;57.27;100041.42;5147176;57;21187;-79
2021/06/22 08:40:13;;;;;;;18.27;10.00;;;;;;;28.40;57.69;100039.83;5147425;57;21768;-82
2021/06/22 08:45:20;;;;;;;16.05;9.48;;;;;;;28.66;55.89;100050.03;5146460;57;21236;-85
2021/06/22 08:50:26;;;;;;;19.75;9.80;;;;;;;28.75;55.84;100048.52;5142600;57;22370;-82
2021/06/22 08:55:33;;;;;;;11.30;8.75;;;;;;;29.04;56.26;100055.52;5222694;56;21251;-79
2021/06/22 09:00:42;;;;;;;18.77;9.10;;;;;;;29.18;55.02;100069.59;5222912;56;21616;-85
2021/06/22 09:05:53;;;;;;;14.23;9.60;;;;;;;29.25;54.75;100057.98;5222874;56;21526;-84
2021/06/22 09:11:16;;;;;;;11.63;9.20;;;;;;;29.32;53.29;100057.81;5217555;56;21762;-79
2021/06/22 09:16:22;;;;;;;16.77;8.95;;;;;;;29.41;54.95;100050.86;5222707;56;22456;-84
2021/06/22 09:21:28;;;;;;;14.40;9.93;;;;;;;29.76;54.11;100055.08;5178605;56;21638;-84
2021/06/22 09:26:35;;;;;;;23.75;11.12;;;;;;;29.91;53.27;100051.16;5147351;57;21094;-84
2021/06/22 09:31:56;;;;;;;17.55;11.60;;;;;;;29.89;53.50;100068.30;5148122;57;21152;-83
2021/06/22 09:37:03;;;;;;;16.40;9.97;;;;;;;29.86;53.42;100053.81;5148574;57;21764;-82
2021/06/22 10:00:05;;;;;;;12.85;9.18;;;;;;;29.83;52.48;100042.88;5097693;56;47004;-85
2021/06/22 10:05:08;;;;;;;232.62;22.82;;;;;;;30.11;52.36;100040.45;4932304;57;1136765;-81
2021/06/22 10:10:14;;;;;;;11.55;8.53;;;;;;;29.92;51.87;100034.54;4933398;57;1145028;-85
2021/06/22 10:15:22;;;;;;;18.82;8.40;;;;;;;29.81;51.96;100038.76;4921755;57;1140855;-84
2021/06/22 10:20:28;;;;;;;13.35;8.28;;;;;;;29.69;51.88;100038.38;4931890;57;1140928;-84
2021/06/22 10:25:34;;;;;;;18.02;7.87;;;;;;;29.55;51.42;100043.94;4905740;58;1140869;-87
2021/06/22 10:30:41;;;;;;;12.73;8.18;;;;;;;29.45;52.11;100059.36;4911028;57;1140775;-84
2021/06/22 10:35:47;;;;;;;13.80;7.75;;;;;;;29.44;52.25;100061.80;4911150;58;1140901;-84
2021/06/22 10:40:58;;;;;;;18.67;7.83;;;;;;;29.40;52.19;100060.11;4911691;58;1140843;-80
2021/06/22 10:46:06;;;;;;;13.80;7.53;;;;;;;29.41;51.98;100057.67;4911929;58;1140869;-84
2021/06/22 10:51:37;;;;;;;14.80;7.35;;;;;;;29.36;51.96;100036.59;4908859;58;1141165;-83
2021/06/22 10:56:43;;;;;;;69.35;10.08;;;;;;;29.18;52.08;100023.86;5012427;57;1140859;-84
2021/06/22 11:01:54;;;;;;;25.52;9.40;;;;;;;29.03;53.71;100029.36;5046987;57;1142822;-80
2021/06/22 11:07:11;;;;;;;16.04;8.22;;;;;;;28.84;55.06;100034.83;5062527;57;1140872;-82
2021/06/22 11:12:24;;;;;;;19.05;8.08;;;;;;;28.42;55.72;100079.83;5062489;56;1140957;-80
2021/06/22 11:17:46;;;;;;;15.78;5.30;;;;;;;27.60;57.52;100065.26;5036925;57;1140859;-85
2021/06/22 11:23:11;;;;;;;9.73;3.08;;;;;;;26.73;59.50;100111.87;5033671;57;1140898;-83
2021/06/22 11:28:23;;;;;;;18.80;5.83;;;;;;;25.61;61.13;100129.66;5033793;57;1139164;-80
2021/06/22 11:33:44;;;;;;;;;;;;;;;24.76;61.22;100124.84;4982274;58;1140775;-81
2021/06/22 11:39:11;;;;;;;15.63;6.20;;;;;;;24.54;63.31;100127.12;4992097;58;976371;-83
2021/06/22 11:44:25;;;;;;;7.80;3.50;;;;;;;24.48;63.67;100110.93;5050358;57;1138901;-82
2021/06/22 11:49:44;;;;;;;7.28;3.90;;;;;;;24.47;63.49;100084.94;4979924;58;1138951;-85
2021/06/22 11:55:03;;;;;;;10.32;6.30;;;;;;;24.31;64.00;100070.61;5048982;57;1138810;-79
2021/06/22 12:00:16;;;;;;;11.20;5.85;;;;;;;24.41;64.72;100106.11;5050203;56;1140900;-82
2021/06/22 12:05:25;;;;;;;14.98;7.05;;;;;;;24.39;65.00;100123.07;5051103;57;1141160;-78
2021/06/22 12:10:52;;;;;;;12.20;7.65;;;;;;;24.32;65.51;100128.50;5051772;57;1141094;-82
2021/06/22 12:15:58;;;;;;;12.37;8.53;;;;;;;24.35;66.30;100131.30;5051766;57;1140983;-79
2021/06/22 12:21:04;;;;;;;19.92;10.60;;;;;;;24.44;67.20;100144.88;5052544;57;1140847;-81
2021/06/22 12:26:16;;;;;;;15.23;10.15;;;;;;;24.50;67.78;100168.32;5052094;57;1143035;-83
2021/06/22 12:31:21;;;;;;;14.90;11.03;;;;;;;24.59;68.42;100179.20;5051883;57;1142928;-81
2021/06/22 12:36:34;;;;;;;23.90;10.08;;;;;;;24.61;68.57;100181.13;5051787;57;1142891;-78
2021/06/22 12:41:40;;;;;;;13.35;8.30;;;;;;;24.71;68.79;100165.27;5051878;56;1143027;-80
2021/06/22 12:46:46;;;;;;;12.70;8.65;;;;;;;24.79;68.73;100171.75;5051967;57;1140908;-79
2021/06/22 12:51:57;;;;;;;12.40;8.50;;;;;;;24.71;68.89;100188.78;5052056;57;1141040;-79
2021/06/22 12:57:07;;;;;;;20.97;9.83;;;;;;;24.63;69.09;100193.09;5028852;57;1140790;-81
2021/06/22 13:02:13;;;;;;;18.90;10.13;;;;;;;24.58;69.48;100195.11;5022719;57;1140952;-81
2021/06/22 13:07:24;;;;;;;18.30;9.63;;;;;;;24.57;69.72;100198.86;4941836;58;1143074;-79
2021/06/22 13:12:32;;;;;;;14.18;9.33;;;;;;;24.55;70.22;100200.95;5022920;57;1140859;-79
2021/06/22 18:05:57;;;;;;;14.03;10.10;;;;;;;22.49;79.41;100389.30;5169973;54;47359;-81
2021/06/22 18:11:06;;;;;;;12.95;8.10;;;;;;;22.38;79.21;100395.58;5005430;57;1138708;-80
2021/06/22 18:16:12;;;;;;;9.38;5.60;;;;;;;22.28;79.11;100407.76;4962578;57;1140850;-84
2021/06/22 18:21:18;;;;;;;9.45;4.62;;;;;;;22.22;79.11;100401.80;5016745;56;1138792;-88
2021/06/22 18:26:24;;;;;;;16.37;7.27;;;;;;;22.09;79.00;100401.20;5010039;56;1138841;-89
2021/06/22 18:31:30;;;;;;;5.28;3.58;;;;;;;21.94;79.04;100405.30;5083830;56;1141123;-82
2021/06/22 18:36:36;;;;;;;15.00;7.47;;;;;;;21.91;79.41;100421.02;5065680;57;1138859;-81
2021/06/22 18:41:45;;;;;;;16.73;12.58;;;;;;;21.84;79.24;100426.87;5066271;56;1140953;-83
2021/06/22 18:46:52;;;;;;;8.70;5.62;;;;;;;21.77;78.98;100432.19;5046237;56;1142967;-84
2021/06/22 18:51:58;;;;;;;14.90;5.65;;;;;;;21.67;78.97;100447.33;4993548;56;1138896;-83
2021/06/22 18:57:03;;;;;;;20.62;10.63;;;;;;;21.63;78.98;100459.50;5010583;56;1141069;-84
2021/06/22 19:02:11;;;;;;;151.90;100.90;;;;;;;21.59;78.95;100462.25;4980790;58;1143152;-81
2021/06/22 19:07:21;;;;;;;50.33;29.40;;;;;;;21.51;79.00;100465.08;4902324;58;1147277;-79
2021/06/22 19:12:26;;;;;;;92.17;65.37;;;;;;;21.38;79.24;100471.16;5056246;56;1142958;-85
2021/06/22 19:17:35;;;;;;;66.85;44.80;;;;;;;21.33;79.49;100468.20;5120324;56;1143117;-84
2021/06/22 19:22:43;;;;;;;34.58;31.15;;;;;;;21.31;79.65;100475.62;5074346;57;1143102;-84
2021/06/22 19:27:50;;;;;;;40.23;28.98;;;;;;;21.31;79.43;100485.03;5074523;57;1143097;-85
2021/06/22 19:32:56;;;;;;;59.73;40.70;;;;;;;21.27;79.35;100494.50;5074179;57;1143042;-80
2021/06/22 19:38:03;;;;;;;29.92;19.02;;;;;;;21.26;79.36;100499.55;5111990;56;1142925;-82
2021/06/22 19:43:08;;;;;;;16.05;12.58;;;;;;;21.24;79.23;100502.94;5097459;56;1143514;-82
2021/06/22 19:48:14;;;;;;;19.80;10.80;;;;;;;21.15;79.28;100513.97;5126549;56;1143002;-80
2021/06/22 19:53:21;;;;;;;11.73;8.00;;;;;;;21.10;79.47;100528.48;5106206;56;1143177;-79
2021/06/22 19:58:26;;;;;;;12.25;5.58;;;;;;;21.04;79.13;100535.45;5126089;56;1140852;-80
2021/06/22 20:03:34;;;;;;;13.13;7.28;;;;;;;21.06;79.07;100538.80;5109800;56;1140882;-83
2021/06/22 20:08:40;;;;;;;10.25;5.40;;;;;;;21.13;78.66;100546.43;5059310;56;1140702;-83
2021/06/22 20:13:46;;;;;;;5.60;3.92;;;;;;;21.16;78.57;100564.89;4943195;58;1141244;-82
2021/06/22 20:18:52;;;;;;;139.15;77.62;;;;;;;21.15;78.24;100576.67;5045413;56;1138819;-81
2021/06/22 20:23:58;;;;;;;134.20;76.70;;;;;;;21.20;78.12;100595.81;5028058;56;1145198;-81
2021/06/22 20:29:05;;;;;;;119.47;64.75;;;;;;;21.14;77.59;100594.33;4970631;57;1144955;-81
2021/06/22 20:34:12;;;;;;;92.92;56.85;;;;;;;20.99;77.06;100599.20;5060666;57;1144962;-81
2021/06/22 20:39:18;;;;;;;15.83;11.18;;;;;;;20.88;77.41;100610.41;5013887;57;1143048;-83
2021/06/22 20:44:24;;;;;;;21.52;17.57;;;;;;;20.89;77.36;100613.43;4964877;58;1142834;-80
2021/06/22 20:49:31;;;;;;;5.17;3.72;;;;;;;20.80;77.18;100615.02;5057965;57;1143073;-80
2021/06/22 20:54:38;;;;;;;14.07;4.00;;;;;;;20.69;77.19;100623.03;5058044;57;1138724;-83
2021/06/22 20:59:44;;;;;;;9.03;4.58;;;;;;;20.62;77.07;100629.63;5099342;56;1140671;-82
2021/06/22 21:04:51;;;;;;;6.65;3.83;;;;;;;20.55;77.26;100627.35;5120091;56;1138644;-82
2021/06/22 21:09:56;;;;;;;8.05;4.08;;;;;;;20.60;77.45;100628.16;5078081;56;1138841;-83
2021/06/22 21:15:04;;;;;;;3.47;3.00;;;;;;;20.53;77.23;100634.75;5139425;56;1139067;-82
2021/06/22 21:20:12;;;;;;;7.25;3.35;;;;;;;20.49;77.43;100636.63;5093764;56;1138714;-83
2021/06/22 21:25:21;;;;;;;5.62;3.60;;;;;;;20.46;77.37;100645.08;5157988;55;1138913;-79
2021/06/22 21:30:28;;;;;;;8.00;3.70;;;;;;;20.35;77.45;100639.05;5126249;55;1138703;-82
2021/06/22 21:35:34;;;;;;;7.37;3.22;;;;;;;20.20;77.83;100634.13;5116720;55;1138643;-82
2021/06/22 21:40:39;;;;;;;9.83;3.55;;;;;;;20.02;78.32;100638.94;5161552;55;1138769;-81
2021/06/22 21:45:46;;;;;;;8.83;3.90;;;;;;;20.01;78.94;100638.64;5161777;55;1138982;-82
2021/06/22 21:50:52;;;;;;;12.10;4.72;;;;;;;19.97;78.98;100630.60;5161613;55;1138665;-81
2021/06/22 21:55:58;;;;;;;5.80;3.92;;;;;;;19.94;79.42;100637.66;5161492;55;1140756;-80
2021/06/22 22:01:04;;;;;;;6.65;4.37;;;;;;;19.99;79.48;100656.27;5161605;55;1138771;-80
2021/06/22 22:06:10;;;;;;;7.83;4.23;;;;;;;19.98;79.62;100667.18;5161859;55;1138926;-83
2021/06/22 22:11:16;;;;;;;7.20;3.58;;;;;;;20.00;79.57;100666.50;5166554;55;1138894;-81
2021/06/22 22:16:22;;;;;;;9.95;4.15;;;;;;;19.91;79.24;100672.91;5168501;55;1138809;-80
2021/06/22 22:21:29;;;;;;;10.60;4.00;;;;;;;19.89;79.42;100685.66;5082955;56;1138808;-82
2021/06/22 22:26:35;;;;;;;8.78;4.37;;;;;;;19.71;79.17;100681.88;5082590;56;1140910;-83
2021/06/22 22:31:41;;;;;;;19.95;3.58;;;;;;;19.67;79.60;100692.66;5082842;56;1138693;-82
2021/06/22 22:36:46;;;;;;;9.90;3.80;;;;;;;19.57;79.74;100683.45;5082735;56;1141155;-80
2021/06/22 22:41:52;;;;;;;10.93;4.17;;;;;;;19.53;79.81;100698.74;5082921;56;1138819;-80
2021/06/22 22:46:58;;;;;;;8.48;3.98;;;;;;;19.53;80.09;100697.40;5082654;56;1140851;-81
2021/06/22 22:52:05;;;;;;;10.18;3.62;;;;;;;19.59;79.93;100696.69;5083483;56;1138761;-81
2021/06/22 22:57:11;;;;;;;9.33;4.28;;;;;;;19.60;79.82;100710.44;5013336;56;1140817;-83
2021/06/22 23:02:17;;;;;;;6.75;3.42;;;;;;;19.53;79.54;100715.67;5076783;57;1138818;-80
2021/06/22 23:07:23;;;;;;;8.00;3.58;;;;;;;19.46;79.44;100712.47;5085536;57;1138858;-80
2021/06/22 23:12:29;;;;;;;8.58;3.35;;;;;;;19.28;79.51;100708.14;5084213;56;1139000;-84
2021/06/22 23:17:36;;;;;;;10.45;3.22;;;;;;;19.22;79.98;100712.03;5102323;56;1138904;-79
2021/06/22 23:22:42;;;;;;;10.23;3.40;;;;;;;19.21;80.16;100701.80;5168672;55;1140978;-80
2021/06/22 23:27:47;;;;;;;6.64;3.60;;;;;;;19.19;80.17;100713.70;5168652;55;1140799;-80
2021/06/22 23:32:53;;;;;;;3.95;2.58;;;;;;;19.18;79.89;100716.88;5168770;55;1138947;-80
2021/06/22 23:37:59;;;;;;;6.72;3.00;;;;;;;19.16;79.74;100726.94;5168682;55;1139005;-81
2021/06/22 23:43:05;;;;;;;7.97;2.65;;;;;;;19.03;78.63;100717.73;5168505;55;1138774;-81
2021/06/22 23:48:11;;;;;;;8.95;2.58;;;;;;;18.84;78.45;100715.73;5168584;55;1138799;-80
2021/06/22 23:53:17;;;;;;;4.78;2.20;;;;;;;18.73;78.43;100712.05;5168568;55;1138744;-81
2021/06/22 23:58:22;;;;;;;10.30;2.98;;;;;;;18.69;78.34;100708.52;5168709;55;1138674;-82
